Terminal Aerodrome Forecast
Issued by NWS

Home | Current Version | Previous Version | Text Only | Print | Product List | Glossary On
Versions: 1 2 3 4 5 6 7 8 9 10 11 12 13 14 15 16 17 18
000
FTUS44 KSJT 211700
TAFBBD
TAF
KBBD 211736Z 2118/2218 17013KT P6SM SCT050
     FM220100 14010KT P6SM SKC
     FM221000 16010KT P6SM BKN025
     FM221500 15013KT P6SM SKC=

USA.gov is the U.S. government's official web portal to all federal, state and local government web resources and services.